sensor_id;sensor_type;location;lat;lon;timestamp;P1;durP1;ratioP1;P2;durP2;ratioP2
43088;SDS011;28709;52.030;5.652;2023-04-15T00:01:08;4.50;;;1.83;;
43088;SDS011;28709;52.030;5.652;2023-04-15T00:03:34;4.80;;;1.95;;
43088;SDS011;28709;52.030;5.652;2023-04-15T00:06:00;3.72;;;1.80;;
43088;SDS011;28709;52.030;5.652;2023-04-15T00:08:26;4.50;;;1.67;;
43088;SDS011;28709;52.030;5.652;2023-04-15T00:10:52;7.20;;;2.10;;
43088;SDS011;28709;52.030;5.652;2023-04-15T00:13:17;4.93;;;2.25;;
43088;SDS011;28709;52.030;5.652;2023-04-15T00:15:43;3.33;;;2.33;;
43088;SDS011;28709;52.030;5.652;2023-04-15T00:18:09;7.03;;;2.85;;
43088;SDS011;28709;52.030;5.652;2023-04-15T00:20:34;7.80;;;2.33;;
43088;SDS011;28709;52.030;5.652;2023-04-15T00:23:01;5.32;;;2.50;;
43088;SDS011;28709;52.030;5.652;2023-04-15T00:25:27;6.47;;;2.60;;
43088;SDS011;28709;52.030;5.652;2023-04-15T00:27:53;5.63;;;2.45;;
43088;SDS011;28709;52.030;5.652;2023-04-15T00:30:19;6.55;;;2.70;;
43088;SDS011;28709;52.030;5.652;2023-04-15T00:32:45;7.00;;;2.33;;
43088;SDS011;28709;52.030;5.652;2023-04-15T00:35:10;6.22;;;3.10;;
43088;SDS011;28709;52.030;5.652;2023-04-15T00:37:36;4.30;;;2.55;;
43088;SDS011;28709;52.030;5.652;2023-04-15T00:40:02;4.68;;;2.17;;
43088;SDS011;28709;52.030;5.652;2023-04-15T00:42:30;5.80;;;3.10;;
43088;SDS011;28709;52.030;5.652;2023-04-15T00:44:55;9.75;;;4.22;;
43088;SDS011;28709;52.030;5.652;2023-04-15T00:47:21;4.85;;;2.42;;
43088;SDS011;28709;52.030;5.652;2023-04-15T00:49:47;6.45;;;2.88;;
43088;SDS011;28709;52.030;5.652;2023-04-15T00:52:13;6.22;;;2.88;;
43088;SDS011;28709;52.030;5.652;2023-04-15T00:54:38;4.93;;;2.60;;
43088;SDS011;28709;52.030;5.652;2023-04-15T00:57:07;6.82;;;3.22;;
43088;SDS011;28709;52.030;5.652;2023-04-15T00:59:34;6.25;;;3.20;;
43088;SDS011;28709;52.030;5.652;2023-04-15T01:02:00;4.30;;;2.83;;
43088;SDS011;28709;52.030;5.652;2023-04-15T01:04:26;8.05;;;3.03;;
43088;SDS011;28709;52.030;5.652;2023-04-15T01:06:52;4.85;;;3.03;;
43088;SDS011;28709;52.030;5.652;2023-04-15T01:09:17;5.32;;;2.70;;
43088;SDS011;28709;52.030;5.652;2023-04-15T01:11:43;5.90;;;2.80;;
43088;SDS011;28709;52.030;5.652;2023-04-15T01:14:09;5.10;;;2.90;;
43088;SDS011;28709;52.030;5.652;2023-04-15T01:16:35;4.22;;;3.05;;
43088;SDS011;28709;52.030;5.652;2023-04-15T01:19:04;8.63;;;3.08;;
43088;SDS011;28709;52.030;5.652;2023-04-15T01:21:33;5.50;;;2.55;;
43088;SDS011;28709;52.030;5.652;2023-04-15T01:24:01;4.97;;;2.60;;
43088;SDS011;28709;52.030;5.652;2023-04-15T01:26:29;7.80;;;3.17;;
43088;SDS011;28709;52.030;5.652;2023-04-15T01:28:54;7.65;;;2.88;;
43088;SDS011;28709;52.030;5.652;2023-04-15T01:31:20;5.72;;;2.90;;
43088;SDS011;28709;52.030;5.652;2023-04-15T01:33:46;11.02;;;3.90;;
43088;SDS011;28709;52.030;5.652;2023-04-15T01:36:11;6.95;;;3.30;;
43088;SDS011;28709;52.030;5.652;2023-04-15T01:38:37;4.53;;;3.00;;
43088;SDS011;28709;52.030;5.652;2023-04-15T01:41:03;7.20;;;2.90;;
43088;SDS011;28709;52.030;5.652;2023-04-15T01:43:31;6.07;;;2.58;;
43088;SDS011;28709;52.030;5.652;2023-04-15T01:45:57;7.88;;;3.50;;
43088;SDS011;28709;52.030;5.652;2023-04-15T01:48:22;9.43;;;3.35;;
43088;SDS011;28709;52.030;5.652;2023-04-15T01:50:48;4.55;;;2.50;;
43088;SDS011;28709;52.030;5.652;2023-04-15T01:53:14;7.35;;;3.33;;
43088;SDS011;28709;52.030;5.652;2023-04-15T01:55:40;5.90;;;3.03;;
43088;SDS011;28709;52.030;5.652;2023-04-15T01:58:06;3.83;;;2.50;;
43088;SDS011;28709;52.030;5.652;2023-04-15T02:00:32;7.68;;;3.47;;
43088;SDS011;28709;52.030;5.652;2023-04-15T02:02:58;5.30;;;2.75;;
43088;SDS011;28709;52.030;5.652;2023-04-15T02:05:24;5.32;;;2.70;;
43088;SDS011;28709;52.030;5.652;2023-04-15T02:07:50;5.10;;;2.60;;
43088;SDS011;28709;52.030;5.652;2023-04-15T02:10:16;4.97;;;3.00;;
43088;SDS011;28709;52.030;5.652;2023-04-15T02:12:41;4.00;;;2.60;;
43088;SDS011;28709;52.030;5.652;2023-04-15T02:15:07;4.55;;;3.10;;
43088;SDS011;28709;52.030;5.652;2023-04-15T02:17:34;7.13;;;3.10;;
43088;SDS011;28709;52.030;5.652;2023-04-15T02:20:01;6.03;;;3.35;;
43088;SDS011;28709;52.030;5.652;2023-04-15T02:22:29;4.90;;;3.45;;
43088;SDS011;28709;52.030;5.652;2023-04-15T02:24:55;7.60;;;4.00;;
43088;SDS011;28709;52.030;5.652;2023-04-15T02:27:21;7.07;;;3.33;;
43088;SDS011;28709;52.030;5.652;2023-04-15T02:29:47;5.85;;;3.15;;
43088;SDS011;28709;52.030;5.652;2023-04-15T02:32:15;5.65;;;3.15;;
43088;SDS011;28709;52.030;5.652;2023-04-15T02:34:41;8.70;;;3.55;;
43088;SDS011;28709;52.030;5.652;2023-04-15T02:37:07;4.95;;;3.67;;
43088;SDS011;28709;52.030;5.652;2023-04-15T02:39:34;10.07;;;4.30;;
43088;SDS011;28709;52.030;5.652;2023-04-15T02:42:00;3.92;;;3.08;;
43088;SDS011;28709;52.030;5.652;2023-04-15T02:44:26;7.60;;;3.60;;
43088;SDS011;28709;52.030;5.652;2023-04-15T02:46:52;10.32;;;4.13;;
43088;SDS011;28709;52.030;5.652;2023-04-15T02:49:21;8.23;;;4.68;;
43088;SDS011;28709;52.030;5.652;2023-04-15T02:51:48;10.20;;;4.10;;
43088;SDS011;28709;52.030;5.652;2023-04-15T02:54:20;6.32;;;3.53;;
43088;SDS011;28709;52.030;5.652;2023-04-15T02:56:50;6.18;;;3.85;;
43088;SDS011;28709;52.030;5.652;2023-04-15T02:59:19;8.63;;;4.13;;
43088;SDS011;28709;52.030;5.652;2023-04-15T03:01:45;5.25;;;3.20;;
43088;SDS011;28709;52.030;5.652;2023-04-15T03:04:10;7.25;;;3.80;;
43088;SDS011;28709;52.030;5.652;2023-04-15T03:06:37;9.02;;;4.03;;
43088;SDS011;28709;52.030;5.652;2023-04-15T03:09:03;8.75;;;3.53;;
43088;SDS011;28709;52.030;5.652;2023-04-15T03:11:29;7.75;;;3.97;;
43088;SDS011;28709;52.030;5.652;2023-04-15T03:13:55;4.35;;;3.20;;
43088;SDS011;28709;52.030;5.652;2023-04-15T03:16:21;8.68;;;4.25;;
43088;SDS011;28709;52.030;5.652;2023-04-15T03:18:47;5.63;;;3.47;;
43088;SDS011;28709;52.030;5.652;2023-04-15T03:21:12;11.80;;;4.05;;
43088;SDS011;28709;52.030;5.652;2023-04-15T03:23:38;7.45;;;4.18;;
43088;SDS011;28709;52.030;5.652;2023-04-15T03:26:03;8.13;;;4.30;;
43088;SDS011;28709;52.030;5.652;2023-04-15T03:28:29;7.57;;;4.05;;
43088;SDS011;28709;52.030;5.652;2023-04-15T03:30:56;6.65;;;4.32;;
43088;SDS011;28709;52.030;5.652;2023-04-15T03:33:22;6.43;;;3.65;;
43088;SDS011;28709;52.030;5.652;2023-04-15T03:35:49;9.20;;;4.30;;
43088;SDS011;28709;52.030;5.652;2023-04-15T03:38:15;5.70;;;3.42;;
43088;SDS011;28709;52.030;5.652;2023-04-15T03:40:41;9.80;;;5.00;;
43088;SDS011;28709;52.030;5.652;2023-04-15T03:43:07;23.65;;;5.80;;
43088;SDS011;28709;52.030;5.652;2023-04-15T03:45:33;7.03;;;4.38;;
43088;SDS011;28709;52.030;5.652;2023-04-15T03:47:59;8.38;;;4.32;;
43088;SDS011;28709;52.030;5.652;2023-04-15T03:50:24;9.30;;;5.05;;
43088;SDS011;28709;52.030;5.652;2023-04-15T03:52:50;7.50;;;4.50;;
43088;SDS011;28709;52.030;5.652;2023-04-15T03:55:16;7.75;;;5.15;;
43088;SDS011;28709;52.030;5.652;2023-04-15T03:57:41;11.45;;;4.65;;
43088;SDS011;28709;52.030;5.652;2023-04-15T04:00:07;11.95;;;5.43;;
43088;SDS011;28709;52.030;5.652;2023-04-15T04:02:34;7.15;;;4.57;;
43088;SDS011;28709;52.030;5.652;2023-04-15T04:05:00;7.85;;;4.95;;
43088;SDS011;28709;52.030;5.652;2023-04-15T04:07:26;11.98;;;5.43;;
43088;SDS011;28709;52.030;5.652;2023-04-15T04:09:52;10.02;;;5.28;;
43088;SDS011;28709;52.030;5.652;2023-04-15T04:12:17;10.80;;;5.82;;
43088;SDS011;28709;52.030;5.652;2023-04-15T04:14:43;9.15;;;5.68;;
43088;SDS011;28709;52.030;5.652;2023-04-15T04:17:09;12.30;;;5.28;;
43088;SDS011;28709;52.030;5.652;2023-04-15T04:19:34;9.05;;;5.28;;
43088;SDS011;28709;52.030;5.652;2023-04-15T04:22:00;10.10;;;5.60;;
43088;SDS011;28709;52.030;5.652;2023-04-15T04:24:26;7.65;;;5.07;;
43088;SDS011;28709;52.030;5.652;2023-04-15T04:26:51;8.63;;;5.13;;
43088;SDS011;28709;52.030;5.652;2023-04-15T04:29:17;8.63;;;5.18;;
43088;SDS011;28709;52.030;5.652;2023-04-15T04:31:43;9.00;;;5.10;;
43088;SDS011;28709;52.030;5.652;2023-04-15T04:34:08;7.38;;;5.13;;
43088;SDS011;28709;52.030;5.652;2023-04-15T04:36:34;11.93;;;4.82;;
43088;SDS011;28709;52.030;5.652;2023-04-15T04:39:00;8.63;;;4.82;;
43088;SDS011;28709;52.030;5.652;2023-04-15T04:41:25;9.82;;;6.15;;
43088;SDS011;28709;52.030;5.652;2023-04-15T04:43:51;12.63;;;5.25;;
43088;SDS011;28709;52.030;5.652;2023-04-15T04:46:17;10.20;;;5.30;;
43088;SDS011;28709;52.030;5.652;2023-04-15T04:48:42;9.57;;;5.97;;
43088;SDS011;28709;52.030;5.652;2023-04-15T04:51:08;10.25;;;5.60;;
43088;SDS011;28709;52.030;5.652;2023-04-15T04:53:34;10.43;;;5.25;;
43088;SDS011;28709;52.030;5.652;2023-04-15T04:56:01;9.60;;;5.55;;
43088;SDS011;28709;52.030;5.652;2023-04-15T04:58:27;9.85;;;6.25;;
43088;SDS011;28709;52.030;5.652;2023-04-15T05:00:53;11.85;;;6.25;;
43088;SDS011;28709;52.030;5.652;2023-04-15T05:03:19;13.55;;;6.28;;
43088;SDS011;28709;52.030;5.652;2023-04-15T05:05:46;10.65;;;5.50;;
43088;SDS011;28709;52.030;5.652;2023-04-15T05:08:13;9.63;;;5.97;;
43088;SDS011;28709;52.030;5.652;2023-04-15T05:10:39;12.40;;;6.35;;
43088;SDS011;28709;52.030;5.652;2023-04-15T05:13:05;9.55;;;5.38;;
43088;SDS011;28709;52.030;5.652;2023-04-15T05:15:31;9.20;;;5.20;;
43088;SDS011;28709;52.030;5.652;2023-04-15T05:17:57;12.73;;;5.78;;
43088;SDS011;28709;52.030;5.652;2023-04-15T05:20:22;8.70;;;5.15;;
43088;SDS011;28709;52.030;5.652;2023-04-15T05:22:48;7.22;;;5.43;;
43088;SDS011;28709;52.030;5.652;2023-04-15T05:25:14;10.57;;;5.50;;
43088;SDS011;28709;52.030;5.652;2023-04-15T05:27:40;8.43;;;5.72;;
43088;SDS011;28709;52.030;5.652;2023-04-15T05:30:06;9.93;;;6.25;;
43088;SDS011;28709;52.030;5.652;2023-04-15T05:32:32;9.93;;;6.15;;
43088;SDS011;28709;52.030;5.652;2023-04-15T05:34:58;9.48;;;6.43;;
43088;SDS011;28709;52.030;5.652;2023-04-15T05:37:24;10.00;;;6.05;;
43088;SDS011;28709;52.030;5.652;2023-04-15T05:39:50;8.63;;;6.13;;
43088;SDS011;28709;52.030;5.652;2023-04-15T05:42:16;9.20;;;6.13;;
43088;SDS011;28709;52.030;5.652;2023-04-15T05:44:44;12.50;;;6.13;;
43088;SDS011;28709;52.030;5.652;2023-04-15T05:47:10;10.10;;;5.75;;
43088;SDS011;28709;52.030;5.652;2023-04-15T05:49:35;10.38;;;6.38;;
43088;SDS011;28709;52.030;5.652;2023-04-15T05:52:01;10.40;;;5.68;;
43088;SDS011;28709;52.030;5.652;2023-04-15T05:54:27;11.65;;;6.68;;
43088;SDS011;28709;52.030;5.652;2023-04-15T05:56:53;8.48;;;5.75;;
43088;SDS011;28709;52.030;5.652;2023-04-15T05:59:18;13.23;;;6.63;;
43088;SDS011;28709;52.030;5.652;2023-04-15T06:01:45;8.60;;;5.68;;
43088;SDS011;28709;52.030;5.652;2023-04-15T06:04:11;8.13;;;5.47;;
43088;SDS011;28709;52.030;5.652;2023-04-15T06:06:36;9.80;;;6.30;;
43088;SDS011;28709;52.030;5.652;2023-04-15T06:09:02;9.52;;;6.32;;
43088;SDS011;28709;52.030;5.652;2023-04-15T06:11:28;14.05;;;6.55;;
43088;SDS011;28709;52.030;5.652;2023-04-15T06:13:54;9.98;;;6.60;;
43088;SDS011;28709;52.030;5.652;2023-04-15T06:16:20;7.95;;;5.57;;
43088;SDS011;28709;52.030;5.652;2023-04-15T06:18:47;7.60;;;5.63;;
43088;SDS011;28709;52.030;5.652;2023-04-15T06:21:13;9.02;;;6.22;;
43088;SDS011;28709;52.030;5.652;2023-04-15T06:23:39;7.18;;;4.97;;
43088;SDS011;28709;52.030;5.652;2023-04-15T06:26:07;9.68;;;5.60;;
43088;SDS011;28709;52.030;5.652;2023-04-15T06:28:33;7.88;;;5.07;;
43088;SDS011;28709;52.030;5.652;2023-04-15T06:30:58;6.97;;;5.60;;
43088;SDS011;28709;52.030;5.652;2023-04-15T06:33:25;6.47;;;4.85;;
43088;SDS011;28709;52.030;5.652;2023-04-15T06:35:51;8.30;;;5.13;;
43088;SDS011;28709;52.030;5.652;2023-04-15T06:38:17;9.73;;;5.68;;
43088;SDS011;28709;52.030;5.652;2023-04-15T06:40:42;9.00;;;6.07;;
43088;SDS011;28709;52.030;5.652;2023-04-15T06:43:11;9.25;;;5.53;;
43088;SDS011;28709;52.030;5.652;2023-04-15T06:45:37;8.55;;;5.40;;
43088;SDS011;28709;52.030;5.652;2023-04-15T06:48:03;7.97;;;6.03;;
43088;SDS011;28709;52.030;5.652;2023-04-15T06:50:29;8.48;;;5.80;;
43088;SDS011;28709;52.030;5.652;2023-04-15T06:52:55;7.45;;;5.15;;
43088;SDS011;28709;52.030;5.652;2023-04-15T06:55:21;6.22;;;5.00;;
43088;SDS011;28709;52.030;5.652;2023-04-15T06:57:47;9.85;;;5.78;;
43088;SDS011;28709;52.030;5.652;2023-04-15T07:00:13;8.00;;;5.13;;
43088;SDS011;28709;52.030;5.652;2023-04-15T07:02:38;7.28;;;5.13;;
43088;SDS011;28709;52.030;5.652;2023-04-15T07:05:05;8.50;;;5.18;;
43088;SDS011;28709;52.030;5.652;2023-04-15T07:07:33;7.38;;;4.88;;
43088;SDS011;28709;52.030;5.652;2023-04-15T07:10:00;9.40;;;6.63;;
43088;SDS011;28709;52.030;5.652;2023-04-15T07:12:27;6.50;;;5.30;;
43088;SDS011;28709;52.030;5.652;2023-04-15T07:14:53;8.13;;;5.70;;
43088;SDS011;28709;52.030;5.652;2023-04-15T07:17:19;8.35;;;5.00;;
43088;SDS011;28709;52.030;5.652;2023-04-15T07:19:45;8.48;;;5.53;;
43088;SDS011;28709;52.030;5.652;2023-04-15T07:22:11;7.60;;;5.28;;
43088;SDS011;28709;52.030;5.652;2023-04-15T07:24:37;7.30;;;4.63;;
43088;SDS011;28709;52.030;5.652;2023-04-15T07:27:02;6.25;;;4.45;;
43088;SDS011;28709;52.030;5.652;2023-04-15T07:29:28;6.75;;;4.45;;
43088;SDS011;28709;52.030;5.652;2023-04-15T07:31:54;5.55;;;3.83;;
43088;SDS011;28709;52.030;5.652;2023-04-15T07:34:21;4.68;;;3.63;;
43088;SDS011;28709;52.030;5.652;2023-04-15T07:36:46;5.07;;;3.55;;
43088;SDS011;28709;52.030;5.652;2023-04-15T07:39:14;4.47;;;3.08;;
43088;SDS011;28709;52.030;5.652;2023-04-15T07:41:40;4.65;;;3.33;;
43088;SDS011;28709;52.030;5.652;2023-04-15T07:44:06;5.28;;;3.03;;
43088;SDS011;28709;52.030;5.652;2023-04-15T07:46:32;5.32;;;3.40;;
43088;SDS011;28709;52.030;5.652;2023-04-15T07:48:57;6.13;;;3.38;;
43088;SDS011;28709;52.030;5.652;2023-04-15T07:51:23;4.80;;;3.33;;
43088;SDS011;28709;52.030;5.652;2023-04-15T07:53:49;5.20;;;3.65;;
43088;SDS011;28709;52.030;5.652;2023-04-15T07:56:14;9.38;;;3.38;;
43088;SDS011;28709;52.030;5.652;2023-04-15T07:58:40;6.30;;;3.90;;
43088;SDS011;28709;52.030;5.652;2023-04-15T08:01:06;6.15;;;3.83;;
43088;SDS011;28709;52.030;5.652;2023-04-15T08:03:32;7.05;;;4.28;;
43088;SDS011;28709;52.030;5.652;2023-04-15T08:05:58;7.30;;;4.15;;
43088;SDS011;28709;52.030;5.652;2023-04-15T08:08:24;7.00;;;4.10;;
43088;SDS011;28709;52.030;5.652;2023-04-15T08:10:50;5.38;;;3.80;;
43088;SDS011;28709;52.030;5.652;2023-04-15T08:13:16;8.88;;;4.35;;
43088;SDS011;28709;52.030;5.652;2023-04-15T08:15:42;5.60;;;3.97;;
43088;SDS011;28709;52.030;5.652;2023-04-15T08:18:07;6.20;;;4.05;;
43088;SDS011;28709;52.030;5.652;2023-04-15T08:20:33;7.07;;;4.28;;
43088;SDS011;28709;52.030;5.652;2023-04-15T08:22:59;5.82;;;3.92;;
43088;SDS011;28709;52.030;5.652;2023-04-15T08:25:25;5.80;;;4.00;;
43088;SDS011;28709;52.030;5.652;2023-04-15T08:27:51;8.70;;;5.03;;
43088;SDS011;28709;52.030;5.652;2023-04-15T08:30:19;6.95;;;4.13;;
43088;SDS011;28709;52.030;5.652;2023-04-15T08:32:45;6.60;;;4.30;;
43088;SDS011;28709;52.030;5.652;2023-04-15T08:35:11;5.35;;;4.10;;
43088;SDS011;28709;52.030;5.652;2023-04-15T08:37:37;7.15;;;4.28;;
43088;SDS011;28709;52.030;5.652;2023-04-15T08:40:03;5.22;;;3.80;;
43088;SDS011;28709;52.030;5.652;2023-04-15T08:42:30;7.10;;;4.57;;
43088;SDS011;28709;52.030;5.652;2023-04-15T08:44:59;7.45;;;3.88;;
43088;SDS011;28709;52.030;5.652;2023-04-15T08:47:28;5.07;;;3.85;;
43088;SDS011;28709;52.030;5.652;2023-04-15T08:49:57;12.27;;;7.60;;
43088;SDS011;28709;52.030;5.652;2023-04-15T08:52:26;6.72;;;4.20;;
43088;SDS011;28709;52.030;5.652;2023-04-15T08:54:55;4.78;;;3.78;;
43088;SDS011;28709;52.030;5.652;2023-04-15T08:57:27;6.47;;;3.88;;
43088;SDS011;28709;52.030;5.652;2023-04-15T08:59:56;4.55;;;3.40;;
43088;SDS011;28709;52.030;5.652;2023-04-15T09:02:22;5.10;;;3.70;;
43088;SDS011;28709;52.030;5.652;2023-04-15T09:04:50;6.65;;;3.38;;
43088;SDS011;28709;52.030;5.652;2023-04-15T09:07:16;4.65;;;2.97;;
43088;SDS011;28709;52.030;5.652;2023-04-15T09:09:41;4.97;;;3.53;;
43088;SDS011;28709;52.030;5.652;2023-04-15T09:12:08;5.55;;;3.45;;
43088;SDS011;28709;52.030;5.652;2023-04-15T09:14:34;4.18;;;3.15;;
43088;SDS011;28709;52.030;5.652;2023-04-15T09:17:01;5.10;;;3.78;;
43088;SDS011;28709;52.030;5.652;2023-04-15T09:19:28;3.78;;;2.70;;
43088;SDS011;28709;52.030;5.652;2023-04-15T09:21:55;6.82;;;3.42;;
43088;SDS011;28709;52.030;5.652;2023-04-15T09:24:23;5.47;;;3.58;;
43088;SDS011;28709;52.030;5.652;2023-04-15T09:26:51;5.68;;;2.80;;
43088;SDS011;28709;52.030;5.652;2023-04-15T09:29:20;3.65;;;2.65;;
43088;SDS011;28709;52.030;5.652;2023-04-15T09:31:49;4.15;;;3.00;;
43088;SDS011;28709;52.030;5.652;2023-04-15T09:34:15;4.45;;;2.55;;
43088;SDS011;28709;52.030;5.652;2023-04-15T09:39:10;4.38;;;1.52;;
43088;SDS011;28709;52.030;5.652;2023-04-15T09:41:36;2.13;;;1.85;;
43088;SDS011;28709;52.030;5.652;2023-04-15T09:44:02;3.97;;;1.75;;
43088;SDS011;28709;52.030;5.652;2023-04-15T09:46:44;2.10;;;1.60;;
43088;SDS011;28709;52.030;5.652;2023-04-15T09:49:10;2.67;;;1.77;;
43088;SDS011;28709;52.030;5.652;2023-04-15T09:51:36;4.22;;;1.85;;
43088;SDS011;28709;52.030;5.652;2023-04-15T09:54:02;3.42;;;2.15;;
43088;SDS011;28709;52.030;5.652;2023-04-15T09:56:35;3.58;;;1.92;;
43088;SDS011;28709;52.030;5.652;2023-04-15T09:59:06;3.63;;;1.88;;
43088;SDS011;28709;52.030;5.652;2023-04-15T10:01:32;4.68;;;1.83;;
43088;SDS011;28709;52.030;5.652;2023-04-15T10:03:58;4.70;;;2.05;;
43088;SDS011;28709;52.030;5.652;2023-04-15T10:06:29;3.33;;;2.08;;
43088;SDS011;28709;52.030;5.652;2023-04-15T10:08:56;4.32;;;2.20;;
43088;SDS011;28709;52.030;5.652;2023-04-15T10:11:23;3.25;;;1.92;;
43088;SDS011;28709;52.030;5.652;2023-04-15T10:13:49;3.08;;;2.15;;
43088;SDS011;28709;52.030;5.652;2023-04-15T10:16:18;3.42;;;2.17;;
43088;SDS011;28709;52.030;5.652;2023-04-15T10:18:46;3.40;;;2.30;;
43088;SDS011;28709;52.030;5.652;2023-04-15T10:21:15;2.65;;;2.10;;
43088;SDS011;28709;52.030;5.652;2023-04-15T10:23:43;3.83;;;2.55;;
43088;SDS011;28709;52.030;5.652;2023-04-15T10:26:09;3.85;;;2.20;;
43088;SDS011;28709;52.030;5.652;2023-04-15T10:28:37;4.18;;;2.30;;
43088;SDS011;28709;52.030;5.652;2023-04-15T10:31:03;4.35;;;2.30;;
43088;SDS011;28709;52.030;5.652;2023-04-15T10:33:30;7.13;;;2.30;;
43088;SDS011;28709;52.030;5.652;2023-04-15T10:35:56;4.95;;;2.83;;
43088;SDS011;28709;52.030;5.652;2023-04-15T10:38:38;4.55;;;2.90;;
43088;SDS011;28709;52.030;5.652;2023-04-15T10:41:12;4.25;;;2.65;;
43088;SDS011;28709;52.030;5.652;2023-04-15T10:44:01;5.70;;;2.75;;
43088;SDS011;28709;52.030;5.652;2023-04-15T10:46:38;4.85;;;2.40;;
43088;SDS011;28709;52.030;5.652;2023-04-15T10:49:12;4.18;;;2.50;;
43088;SDS011;28709;52.030;5.652;2023-04-15T10:51:39;5.20;;;2.75;;
43088;SDS011;28709;52.030;5.652;2023-04-15T10:54:16;4.25;;;2.33;;
43088;SDS011;28709;52.030;5.652;2023-04-15T10:56:51;3.90;;;2.38;;
43088;SDS011;28709;52.030;5.652;2023-04-15T10:59:30;3.65;;;2.35;;
43088;SDS011;28709;52.030;5.652;2023-04-15T11:02:05;3.53;;;2.45;;
43088;SDS011;28709;52.030;5.652;2023-04-15T11:12:42;3.40;;;2.25;;
43088;SDS011;28709;52.030;5.652;2023-04-15T11:15:26;2.97;;;1.90;;
43088;SDS011;28709;52.030;5.652;2023-04-15T11:18:01;2.80;;;2.10;;
43088;SDS011;28709;52.030;5.652;2023-04-15T11:20:36;5.20;;;2.13;;
43088;SDS011;28709;52.030;5.652;2023-04-15T11:23:03;3.00;;;2.10;;
43088;SDS011;28709;52.030;5.652;2023-04-15T11:25:30;2.45;;;1.70;;
43088;SDS011;28709;52.030;5.652;2023-04-15T11:27:57;4.43;;;1.75;;
43088;SDS011;28709;52.030;5.652;2023-04-15T11:30:25;3.08;;;2.10;;
43088;SDS011;28709;52.030;5.652;2023-04-15T11:32:53;4.13;;;1.80;;
43088;SDS011;28709;52.030;5.652;2023-04-15T11:35:21;3.13;;;1.88;;
43088;SDS011;28709;52.030;5.652;2023-04-15T11:37:48;3.63;;;2.03;;
43088;SDS011;28709;52.030;5.652;2023-04-15T11:40:14;3.97;;;2.00;;
43088;SDS011;28709;52.030;5.652;2023-04-15T11:42:42;2.08;;;1.85;;
43088;SDS011;28709;52.030;5.652;2023-04-15T11:45:12;1.80;;;1.52;;
43088;SDS011;28709;52.030;5.652;2023-04-15T11:47:39;2.47;;;1.80;;
43088;SDS011;28709;52.030;5.652;2023-04-15T11:50:16;3.20;;;1.95;;
43088;SDS011;28709;52.030;5.652;2023-04-15T11:52:53;2.75;;;1.85;;
43088;SDS011;28709;52.030;5.652;2023-04-15T11:55:19;4.93;;;1.95;;
43088;SDS011;28709;52.030;5.652;2023-04-15T11:57:45;5.35;;;1.83;;
43088;SDS011;28709;52.030;5.652;2023-04-15T12:00:11;4.93;;;1.75;;
43088;SDS011;28709;52.030;5.652;2023-04-15T12:02:37;4.30;;;2.13;;
43088;SDS011;28709;52.030;5.652;2023-04-15T12:05:06;2.63;;;1.70;;
43088;SDS011;28709;52.030;5.652;2023-04-15T12:07:32;5.70;;;1.85;;
43088;SDS011;28709;52.030;5.652;2023-04-15T12:09:58;4.43;;;1.52;;
43088;SDS011;28709;52.030;5.652;2023-04-15T12:12:27;3.10;;;1.67;;
43088;SDS011;28709;52.030;5.652;2023-04-15T12:14:53;1.75;;;1.52;;
43088;SDS011;28709;52.030;5.652;2023-04-15T12:17:21;3.85;;;1.60;;
43088;SDS011;28709;52.030;5.652;2023-04-15T12:19:48;2.72;;;1.90;;
43088;SDS011;28709;52.030;5.652;2023-04-15T12:22:20;3.28;;;2.10;;
43088;SDS011;28709;52.030;5.652;2023-04-15T12:24:46;2.28;;;1.85;;
43088;SDS011;28709;52.030;5.652;2023-04-15T12:27:13;2.95;;;1.67;;
43088;SDS011;28709;52.030;5.652;2023-04-15T12:29:40;3.45;;;1.77;;
43088;SDS011;28709;52.030;5.652;2023-04-15T12:32:14;5.28;;;2.05;;
43088;SDS011;28709;52.030;5.652;2023-04-15T12:34:42;7.38;;;1.40;;
43088;SDS011;28709;52.030;5.652;2023-04-15T12:37:15;2.75;;;1.60;;
43088;SDS011;28709;52.030;5.652;2023-04-15T12:39:42;5.32;;;1.58;;
43088;SDS011;28709;52.030;5.652;2023-04-15T12:42:10;3.13;;;1.30;;
43088;SDS011;28709;52.030;5.652;2023-04-15T12:44:36;8.23;;;1.77;;
43088;SDS011;28709;52.030;5.652;2023-04-15T12:47:03;9.23;;;1.30;;
43088;SDS011;28709;52.030;5.652;2023-04-15T12:49:29;2.10;;;1.08;;
43088;SDS011;28709;52.030;5.652;2023-04-15T12:51:56;2.17;;;1.08;;
43088;SDS011;28709;52.030;5.652;2023-04-15T12:54:24;3.45;;;1.13;;
43088;SDS011;28709;52.030;5.652;2023-04-15T12:56:51;2.38;;;1.25;;
43088;SDS011;28709;52.030;5.652;2023-04-15T12:59:17;6.47;;;1.10;;
43088;SDS011;28709;52.030;5.652;2023-04-15T13:01:42;1.92;;;0.90;;
43088;SDS011;28709;52.030;5.652;2023-04-15T13:04:09;2.80;;;1.25;;
43088;SDS011;28709;52.030;5.652;2023-04-15T13:06:35;1.88;;;0.90;;
43088;SDS011;28709;52.030;5.652;2023-04-15T13:09:02;4.05;;;1.95;;
43088;SDS011;28709;52.030;5.652;2023-04-15T13:11:28;4.00;;;1.17;;
43088;SDS011;28709;52.030;5.652;2023-04-15T13:13:59;2.05;;;0.85;;
43088;SDS011;28709;52.030;5.652;2023-04-15T13:16:26;5.55;;;1.30;;
43088;SDS011;28709;52.030;5.652;2023-04-15T13:18:52;2.60;;;1.10;;
43088;SDS011;28709;52.030;5.652;2023-04-15T13:21:18;2.20;;;1.00;;
43088;SDS011;28709;52.030;5.652;2023-04-15T13:23:43;2.25;;;1.17;;
43088;SDS011;28709;52.030;5.652;2023-04-15T13:26:09;1.52;;;0.98;;
43088;SDS011;28709;52.030;5.652;2023-04-15T13:28:35;5.22;;;1.05;;
43088;SDS011;28709;52.030;5.652;2023-04-15T13:31:01;1.67;;;1.10;;
43088;SDS011;28709;52.030;5.652;2023-04-15T13:33:27;3.65;;;1.02;;
43088;SDS011;28709;52.030;5.652;2023-04-15T13:35:52;2.58;;;1.00;;
43088;SDS011;28709;52.030;5.652;2023-04-15T13:38:18;1.50;;;0.70;;
43088;SDS011;28709;52.030;5.652;2023-04-15T13:40:44;3.33;;;1.35;;
43088;SDS011;28709;52.030;5.652;2023-04-15T13:43:10;1.88;;;0.80;;
43088;SDS011;28709;52.030;5.652;2023-04-15T13:45:36;2.75;;;0.70;;
43088;SDS011;28709;52.030;5.652;2023-04-15T13:48:02;4.38;;;0.70;;
43088;SDS011;28709;52.030;5.652;2023-04-15T13:50:27;2.22;;;0.90;;
43088;SDS011;28709;52.030;5.652;2023-04-15T13:52:53;3.08;;;1.23;;
43088;SDS011;28709;52.030;5.652;2023-04-15T13:55:19;3.15;;;0.63;;
43088;SDS011;28709;52.030;5.652;2023-04-15T13:57:45;1.30;;;0.70;;
43088;SDS011;28709;52.030;5.652;2023-04-15T14:00:11;4.47;;;0.77;;
43088;SDS011;28709;52.030;5.652;2023-04-15T14:02:37;1.58;;;0.95;;
43088;SDS011;28709;52.030;5.652;2023-04-15T14:05:03;2.25;;;0.80;;
43088;SDS011;28709;52.030;5.652;2023-04-15T14:07:29;1.98;;;0.90;;
43088;SDS011;28709;52.030;5.652;2023-04-15T14:09:55;4.90;;;1.50;;
43088;SDS011;28709;52.030;5.652;2023-04-15T14:12:21;1.88;;;0.80;;
43088;SDS011;28709;52.030;5.652;2023-04-15T14:14:47;2.50;;;1.00;;
43088;SDS011;28709;52.030;5.652;2023-04-15T14:17:12;3.03;;;1.90;;
43088;SDS011;28709;52.030;5.652;2023-04-15T14:19:38;2.70;;;1.05;;
43088;SDS011;28709;52.030;5.652;2023-04-15T14:22:04;2.33;;;1.38;;
43088;SDS011;28709;52.030;5.652;2023-04-15T14:24:30;5.18;;;1.40;;
43088;SDS011;28709;52.030;5.652;2023-04-15T14:26:55;4.07;;;1.00;;
43088;SDS011;28709;52.030;5.652;2023-04-15T14:29:22;5.00;;;1.30;;
43088;SDS011;28709;52.030;5.652;2023-04-15T14:31:48;4.13;;;1.15;;
43088;SDS011;28709;52.030;5.652;2023-04-15T14:34:14;2.03;;;1.10;;
43088;SDS011;28709;52.030;5.652;2023-04-15T14:36:41;3.70;;;1.40;;
43088;SDS011;28709;52.030;5.652;2023-04-15T14:39:06;2.80;;;1.30;;
43088;SDS011;28709;52.030;5.652;2023-04-15T14:41:33;2.40;;;1.20;;
43088;SDS011;28709;52.030;5.652;2023-04-15T14:43:59;3.15;;;1.38;;
43088;SDS011;28709;52.030;5.652;2023-04-15T14:46:25;4.30;;;1.38;;
43088;SDS011;28709;52.030;5.652;2023-04-15T14:48:51;7.25;;;1.30;;
43088;SDS011;28709;52.030;5.652;2023-04-15T14:51:16;2.97;;;1.30;;
43088;SDS011;28709;52.030;5.652;2023-04-15T14:53:43;4.68;;;1.42;;